Lynnville, Iowa
Current Conditions -  °F | °C
As of 1:35 AM on Thursday 23 Oct 2014 (Local Time) from KGGI Reporting Station
Broken Clouds Broken Clouds  
Wind Chill: 51°   Ceiling: 8000
Heat Index: 51°   Visibility: 10mi
Dew Point: 41°   Wind: 9mph
Humidity: 68%   Direction: 190°S
Pressure: 30.12"   Gusts: NA
Location:  41.58°N, 92.78°W
Report Text: KGGI 230635Z AUTO 19008KT 10SM BKN080 BKN090 11/05 A3012 RMK AO2 T01080050
Loading
Personal Weather Stations






























Interactive Weather Map
Tropical Storm Tracking
New forecast layout! Learn more

10-Day Weather Forecast

Advertisements
Track Severe Weather on mobile